createdAt,value
2022-08-03T00:03:42.171Z,20.7
2022-08-03T00:09:02.757Z,20.6
2022-08-03T00:13:59.124Z,20.5
2022-08-03T00:19:01.497Z,20.5
2022-08-03T00:24:11.881Z,20.4
2022-08-03T00:29:14.258Z,20.3
2022-08-03T00:34:29.847Z,20.2
2022-08-03T00:39:17.108Z,20.2
2022-08-03T00:54:45.311Z,20.0
2022-08-03T00:59:52.635Z,20.0
2022-08-03T01:04:48.991Z,19.9
2022-08-03T01:09:55.375Z,19.8
2022-08-03T01:15:11.773Z,19.8
2022-08-03T01:21:30.362Z,19.8
2022-08-03T01:25:44.658Z,19.7
2022-08-03T01:30:30.023Z,19.6
2022-08-03T01:35:38.662Z,19.6
2022-08-03T01:40:43.969Z,19.5
2022-08-03T01:46:10.499Z,19.5
2022-08-03T01:51:00.869Z,19.4
2022-08-03T01:56:42.475Z,19.3
2022-08-03T02:02:28.794Z,19.3
2022-08-03T02:07:01.727Z,19.3
2022-08-03T02:12:02.771Z,19.2
2022-08-03T02:17:09.165Z,19.2
2022-08-03T02:32:48.371Z,19.0
2022-08-03T02:37:24.843Z,18.9
2022-08-03T02:42:31.268Z,18.9
2022-08-03T02:47:54.541Z,18.8
2022-08-03T02:52:58.084Z,18.8
2022-08-03T02:58:01.458Z,18.7
2022-08-03T03:03:06.915Z,18.7
2022-08-03T03:08:18.653Z,18.6
2022-08-03T03:13:19.756Z,18.5
2022-08-03T03:18:46.193Z,18.5
2022-08-03T03:23:32.545Z,18.4
2022-08-03T03:28:38.918Z,18.4
2022-08-03T03:33:45.336Z,18.3
2022-08-03T03:38:51.683Z,18.3
2022-08-03T03:43:58.163Z,18.2
2022-08-03T03:49:05.230Z,18.2
2022-08-03T03:54:31.598Z,18.1
2022-08-03T04:00:34.141Z,18.1
2022-08-03T04:04:52.382Z,18.0
2022-08-03T04:09:30.778Z,18.0
2022-08-03T04:18:52.742Z,18.0
2022-08-03T04:24:28.185Z,18.0
2022-08-03T04:28:56.485Z,18.0
2022-08-03T04:34:16.944Z,18.0
2022-08-03T04:40:03.450Z,17.9
2022-08-03T04:44:45.776Z,17.9
2022-08-03T04:49:36.238Z,17.9
2022-08-03T04:55:02.548Z,17.8
2022-08-03T04:59:44.881Z,17.8
2022-08-03T05:04:51.266Z,17.8
2022-08-03T05:10:03.276Z,17.8
2022-08-03T05:15:28.106Z,17.8
2022-08-03T05:20:10.434Z,17.9
2022-08-03T05:25:50.899Z,17.9
2022-08-03T05:30:58.365Z,17.9
2022-08-03T05:36:04.755Z,18.0
2022-08-03T05:41:22.507Z,18.1
2022-08-03T05:46:12.539Z,18.2
2022-08-03T05:51:22.866Z,18.3
2022-08-03T05:56:30.236Z,18.4
2022-08-03T06:06:46.969Z,18.6
2022-08-03T06:11:49.414Z,18.7
2022-08-03T06:18:12.920Z,19.1
2022-08-03T06:23:01.202Z,19.1
2022-08-03T06:28:52.869Z,19.3
2022-08-03T06:33:12.178Z,19.5
2022-08-03T06:38:19.573Z,19.6
2022-08-03T06:44:03.030Z,19.8
2022-08-03T06:48:52.390Z,20.0
2022-08-03T06:58:45.108Z,20.3
2022-08-03T07:03:52.573Z,20.5
2022-08-03T07:08:59.672Z,20.7
2022-08-03T07:14:04.347Z,21.0
2022-08-03T07:19:10.766Z,21.2
2022-08-03T07:24:07.143Z,21.4
2022-08-03T07:29:23.535Z,21.7
2022-08-03T07:34:29.905Z,21.9
2022-08-03T07:39:36.282Z,22.3
2022-08-03T07:44:42.771Z,22.8
2022-08-03T07:49:49.166Z,23.6
2022-08-03T07:55:23.588Z,24.3
2022-08-03T08:00:15.941Z,25.1
2022-08-03T08:15:21.058Z,27.5
2022-08-03T08:25:24.220Z,28.8
2022-08-03T08:30:40.613Z,29.5
2022-08-03T08:40:57.418Z,30.7
2022-08-03T08:45:49.804Z,31.3
2022-08-03T08:51:54.714Z,31.9
2022-08-03T08:56:12.609Z,32.5
2022-08-03T09:01:19.087Z,33.1
2022-08-03T09:06:15.429Z,33.4
2022-08-03T09:11:54.517Z,33.7
2022-08-03T09:16:38.218Z,34.0
2022-08-03T09:21:44.617Z,34.2
2022-08-03T09:32:32.936Z,35.3
2022-08-03T09:38:13.630Z,35.6
2022-08-03T09:43:57.634Z,36.1
2022-08-03T09:48:15.922Z,36.7
2022-08-03T09:53:22.318Z,37.2
2022-08-03T09:58:04.661Z,37.8
2022-08-03T10:03:11.754Z,38.2
2022-08-03T10:08:18.217Z,38.7
2022-08-03T10:13:24.672Z,39.1
2022-08-03T10:18:31.045Z,39.5
2022-08-03T10:23:37.447Z,39.8
2022-08-03T10:28:45.513Z,40.2
2022-08-03T10:34:14.304Z,40.5
2022-08-03T10:39:16.705Z,40.9
2022-08-03T10:49:09.491Z,41.4
2022-08-03T10:54:15.797Z,41.7
2022-08-03T11:04:28.571Z,41.9
2022-08-03T11:09:54.999Z,42.0
2022-08-03T11:24:54.461Z,42.5
2022-08-03T11:30:00.708Z,42.5
2022-08-03T11:35:07.095Z,42.6
2022-08-03T11:40:13.486Z,42.6
2022-08-03T11:45:40.025Z,42.6
2022-08-03T11:50:46.422Z,42.6
2022-08-03T11:55:32.729Z,42.6
2022-08-03T12:00:40.557Z,42.5
2022-08-03T12:06:09.635Z,42.4
2022-08-03T12:10:52.057Z,42.1
2022-08-03T12:15:58.480Z,41.7
2022-08-03T12:21:04.868Z,41.5
2022-08-03T12:26:31.257Z,41.3
2022-08-03T12:31:17.618Z,41.1
2022-08-03T12:36:24.085Z,41.0
2022-08-03T12:41:30.463Z,40.8
2022-08-03T12:46:36.880Z,40.7
2022-08-03T12:51:47.231Z,40.6
2022-08-03T12:56:49.598Z,40.5
2022-08-03T13:01:56.148Z,40.4
2022-08-03T13:07:03.199Z,40.3
2022-08-03T13:12:32.784Z,40.3
2022-08-03T13:17:15.268Z,40.3
2022-08-03T13:22:21.647Z,40.4
2022-08-03T13:28:03.288Z,40.5
2022-08-03T13:32:33.540Z,40.6
2022-08-03T13:37:40.927Z,40.7
2022-08-03T13:42:47.391Z,40.8
2022-08-03T13:48:36.925Z,40.8
2022-08-03T13:54:12.246Z,40.9
2022-08-03T13:59:18.674Z,40.9
2022-08-03T14:03:36.948Z,40.8
2022-08-03T14:08:19.295Z,40.8
2022-08-03T14:13:17.634Z,40.7
2022-08-03T14:18:33.752Z,40.6
2022-08-03T14:23:38.688Z,40.4
2022-08-03T14:29:09.068Z,40.3
2022-08-03T14:34:11.436Z,40.1
2022-08-03T14:41:11.996Z,39.4
2022-08-03T14:45:53.696Z,39.4
2022-08-03T14:51:00.040Z,39.1
2022-08-03T14:56:10.477Z,38.7
2022-08-03T15:02:05.387Z,38.4
2022-08-03T15:06:09.280Z,38.0
2022-08-03T15:11:25.745Z,37.6
2022-08-03T15:16:32.278Z,37.3
2022-08-03T15:21:46.814Z,37.0
2022-08-03T15:26:40.916Z,36.7
2022-08-03T15:31:51.416Z,36.4
2022-08-03T15:36:47.758Z,36.1
2022-08-03T15:42:04.155Z,35.8
2022-08-03T15:47:10.627Z,35.6
2022-08-03T15:52:41.044Z,35.4
2022-08-03T15:57:23.732Z,35.1
2022-08-03T16:02:29.777Z,34.9
2022-08-03T16:12:42.569Z,34.6
2022-08-03T16:17:48.934Z,34.4
2022-08-03T16:22:55.366Z,34.2
2022-08-03T16:28:07.937Z,34.1
2022-08-03T16:33:08.301Z,33.9
2022-08-03T16:38:18.828Z,33.8
2022-08-03T16:43:41.256Z,33.7
2022-08-03T16:48:27.612Z,33.5
2022-08-03T16:54:07.455Z,33.4
2022-08-03T16:58:42.583Z,33.3
2022-08-03T17:04:02.789Z,33.2
2022-08-03T17:08:55.170Z,33.1
2022-08-03T17:13:59.567Z,33.0
2022-08-03T17:19:05.950Z,32.9
2022-08-03T17:24:40.817Z,32.8
2022-08-03T17:29:18.701Z,32.7
2022-08-03T17:34:26.480Z,32.6
2022-08-03T17:39:59.782Z,32.5
2022-08-03T17:44:58.101Z,32.4
2022-08-03T17:49:44.460Z,32.3
2022-08-03T17:55:55.503Z,32.2
2022-08-03T17:59:57.214Z,32.0
2022-08-03T18:06:11.058Z,31.9
2022-08-03T18:10:30.017Z,31.8
2022-08-03T18:15:21.332Z,31.6
2022-08-03T18:20:33.055Z,31.5
2022-08-03T18:25:45.815Z,31.4
2022-08-03T18:30:53.883Z,31.2
2022-08-03T18:35:52.919Z,31.1
2022-08-03T18:45:58.029Z,30.9
2022-08-03T18:51:24.346Z,30.8
2022-08-03T18:56:08.308Z,30.6
2022-08-03T19:01:57.823Z,30.5
2022-08-03T19:06:21.194Z,30.4
2022-08-03T19:16:34.247Z,30.0
2022-08-03T19:22:00.380Z,29.9
2022-08-03T19:26:48.678Z,29.7
2022-08-03T19:31:59.604Z,29.6
2022-08-03T19:36:59.924Z,29.4
2022-08-03T19:42:10.078Z,29.2
2022-08-03T19:47:36.764Z,29.0
2022-08-03T19:52:39.118Z,28.9
2022-08-03T19:57:25.466Z,28.7
2022-08-03T20:02:31.839Z,28.6
2022-08-03T20:07:38.243Z,28.4
2022-08-03T20:12:44.651Z,28.2
2022-08-03T20:17:57.160Z,28.0
2022-08-03T20:22:57.877Z,27.9
2022-08-03T20:28:07.940Z,27.7
2022-08-03T20:34:01.628Z,27.5
2022-08-03T20:38:20.340Z,27.4
2022-08-03T20:43:26.731Z,27.2
2022-08-03T20:49:45.883Z,27.1
2022-08-03T20:54:00.448Z,26.9
2022-08-03T20:59:14.898Z,26.8
2022-08-03T21:03:55.584Z,26.6
2022-08-03T21:08:58.763Z,26.5
2022-08-03T21:13:04.309Z,31.0
2022-08-03T21:14:52.239Z,26.4
2022-08-03T21:19:31.549Z,26.2
2022-08-03T21:24:17.923Z,26.1
2022-08-03T21:39:37.297Z,25.7
2022-08-03T21:45:07.749Z,25.6
2022-08-03T21:50:07.377Z,25.5
2022-08-03T21:54:56.485Z,25.4
2022-08-03T22:00:02.863Z,25.3
2022-08-03T22:05:43.878Z,25.1
2022-08-03T22:10:15.637Z,25.0
2022-08-03T22:16:34.276Z,24.9
2022-08-03T22:20:28.790Z,24.8
2022-08-03T22:25:35.160Z,24.7
2022-08-03T22:30:41.555Z,24.6
2022-08-03T22:35:48.490Z,24.5
2022-08-03T22:40:54.319Z,24.4
2022-08-03T22:46:24.731Z,24.3
2022-08-03T22:51:07.184Z,24.2
2022-08-03T22:56:13.562Z,24.1
2022-08-03T23:01:20.052Z,24.0
2022-08-03T23:06:26.454Z,23.9
2022-08-03T23:11:32.903Z,23.8
2022-08-03T23:16:39.296Z,23.7
2022-08-03T23:22:29.419Z,23.7
2022-08-03T23:27:16.219Z,23.6
2022-08-03T23:31:58.659Z,23.5
2022-08-03T23:37:05.033Z,23.4
2022-08-03T23:42:15.432Z,23.3
2022-08-03T23:47:17.821Z,23.3
2022-08-03T23:52:48.251Z,23.2
2022-08-03T23:57:30.594Z,23.1
